sensor_id;sensor_type;location;lat;lon;timestamp;temperature;humidity
23495;DHT22;26107;50.832;2.950;2022-07-12T00:10:48;22.70;99.60
23495;DHT22;26107;50.832;2.950;2022-07-12T00:25:48;22.70;98.90
23495;DHT22;26107;50.832;2.950;2022-07-12T00:40:49;22.50;99.40
23495;DHT22;26107;50.832;2.950;2022-07-12T00:55:58;22.20;99.80
23495;DHT22;26107;50.832;2.950;2022-07-12T01:10:59;21.70;99.90
23495;DHT22;26107;50.832;2.950;2022-07-12T01:26:00;21.40;99.90
23495;DHT22;26107;50.832;2.950;2022-07-12T01:41:01;20.70;99.90
23495;DHT22;26107;50.832;2.950;2022-07-12T01:56:02;20.80;99.90
23495;DHT22;26107;50.832;2.950;2022-07-12T02:11:03;20.60;99.90
23495;DHT22;26107;50.832;2.950;2022-07-12T02:26:03;20.50;99.90
23495;DHT22;26107;50.832;2.950;2022-07-12T02:41:04;20.40;99.90
23495;DHT22;26107;50.832;2.950;2022-07-12T02:56:05;20.40;99.90
23495;DHT22;26107;50.832;2.950;2022-07-12T03:11:05;20.60;99.90
23495;DHT22;26107;50.832;2.950;2022-07-12T03:26:06;20.20;99.90
23495;DHT22;26107;50.832;2.950;2022-07-12T03:41:07;20.30;99.90
23495;DHT22;26107;50.832;2.950;2022-07-12T03:56:07;19.80;99.90
23495;DHT22;26107;50.832;2.950;2022-07-12T04:11:08;19.50;99.90
23495;DHT22;26107;50.832;2.950;2022-07-12T04:26:08;19.60;99.90
23495;DHT22;26107;50.832;2.950;2022-07-12T04:41:09;19.50;99.90
23495;DHT22;26107;50.832;2.950;2022-07-12T04:56:09;19.50;99.90
23495;DHT22;26107;50.832;2.950;2022-07-12T05:11:09;19.20;99.90
23495;DHT22;26107;50.832;2.950;2022-07-12T05:26:10;19.50;99.90
23495;DHT22;26107;50.832;2.950;2022-07-12T05:41:10;19.40;99.90
23495;DHT22;26107;50.832;2.950;2022-07-12T05:56:11;19.70;99.90
23495;DHT22;26107;50.832;2.950;2022-07-12T06:11:12;19.50;99.90
23495;DHT22;26107;50.832;2.950;2022-07-12T06:26:12;19.80;99.90
23495;DHT22;26107;50.832;2.950;2022-07-12T06:41:13;20.10;99.90
23495;DHT22;26107;50.832;2.950;2022-07-12T06:56:13;20.20;99.90
23495;DHT22;26107;50.832;2.950;2022-07-12T07:11:15;20.40;99.90
23495;DHT22;26107;50.832;2.950;2022-07-12T07:26:16;20.70;99.90
23495;DHT22;26107;50.832;2.950;2022-07-12T07:41:16;21.40;99.90
23495;DHT22;26107;50.832;2.950;2022-07-12T07:56:17;21.70;99.90
23495;DHT22;26107;50.832;2.950;2022-07-12T08:11:17;22.00;99.90
23495;DHT22;26107;50.832;2.950;2022-07-12T08:26:18;22.30;99.90
23495;DHT22;26107;50.832;2.950;2022-07-12T08:41:18;22.40;99.90
23495;DHT22;26107;50.832;2.950;2022-07-12T08:56:31;23.20;99.90
23495;DHT22;26107;50.832;2.950;2022-07-12T09:11:35;23.30;99.50
23495;DHT22;26107;50.832;2.950;2022-07-12T09:26:35;24.10;96.10
23495;DHT22;26107;50.832;2.950;2022-07-12T09:41:36;24.70;94.20
23495;DHT22;26107;50.832;2.950;2022-07-12T09:56:36;24.80;91.20
23495;DHT22;26107;50.832;2.950;2022-07-12T10:11:38;25.60;90.60
23495;DHT22;26107;50.832;2.950;2022-07-12T10:26:39;25.60;90.40
23495;DHT22;26107;50.832;2.950;2022-07-12T10:41:40;25.60;89.10
23495;DHT22;26107;50.832;2.950;2022-07-12T10:56:55;25.50;86.60
23495;DHT22;26107;50.832;2.950;2022-07-12T11:11:55;26.00;85.80
23495;DHT22;26107;50.832;2.950;2022-07-12T11:26:56;26.20;80.20
23495;DHT22;26107;50.832;2.950;2022-07-12T11:41:57;26.60;75.20
23495;DHT22;26107;50.832;2.950;2022-07-12T11:57:05;26.90;69.40
23495;DHT22;26107;50.832;2.950;2022-07-12T12:12:13;27.50;71.00
23495;DHT22;26107;50.832;2.950;2022-07-12T12:27:23;28.20;66.10
23495;DHT22;26107;50.832;2.950;2022-07-12T12:42:24;28.40;65.70
23495;DHT22;26107;50.832;2.950;2022-07-12T12:57:25;28.10;66.70
23495;DHT22;26107;50.832;2.950;2022-07-12T13:12:26;28.50;65.50
23495;DHT22;26107;50.832;2.950;2022-07-12T13:27:26;28.90;61.40
23495;DHT22;26107;50.832;2.950;2022-07-12T13:42:27;29.50;57.50
23495;DHT22;26107;50.832;2.950;2022-07-12T13:57:27;29.20;56.70
23495;DHT22;26107;50.832;2.950;2022-07-12T14:12:28;29.50;56.30
23495;DHT22;26107;50.832;2.950;2022-07-12T14:27:29;29.60;55.70
23495;DHT22;26107;50.832;2.950;2022-07-12T14:42:29;30.80;56.00
23495;DHT22;26107;50.832;2.950;2022-07-12T14:57:30;31.00;54.80
23495;DHT22;26107;50.832;2.950;2022-07-12T15:12:30;31.20;54.20
23495;DHT22;26107;50.832;2.950;2022-07-12T15:27:33;32.90;56.00
23495;DHT22;26107;50.832;2.950;2022-07-12T15:42:34;31.30;55.40
23495;DHT22;26107;50.832;2.950;2022-07-12T15:57:35;31.70;55.90
23495;DHT22;26107;50.832;2.950;2022-07-12T16:12:36;32.70;51.40
23495;DHT22;26107;50.832;2.950;2022-07-12T16:27:37;31.90;51.00
23495;DHT22;26107;50.832;2.950;2022-07-12T16:42:38;33.50;50.50
23495;DHT22;26107;50.832;2.950;2022-07-12T16:57:38;36.40;46.50
23495;DHT22;26107;50.832;2.950;2022-07-12T17:12:39;33.00;58.70
23495;DHT22;26107;50.832;2.950;2022-07-12T17:27:39;31.70;63.30
23495;DHT22;26107;50.832;2.950;2022-07-12T17:42:40;30.70;67.80
23495;DHT22;26107;50.832;2.950;2022-07-12T17:57:41;30.00;71.10
23495;DHT22;26107;50.832;2.950;2022-07-12T18:13:02;30.30;70.60
23495;DHT22;26107;50.832;2.950;2022-07-12T18:28:21;29.40;72.90
23495;DHT22;26107;50.832;2.950;2022-07-12T18:43:22;29.30;73.50
23495;DHT22;26107;50.832;2.950;2022-07-12T18:58:22;28.90;75.60
23495;DHT22;26107;50.832;2.950;2022-07-12T19:13:23;28.80;77.00
23495;DHT22;26107;50.832;2.950;2022-07-12T19:28:23;28.80;77.40
23495;DHT22;26107;50.832;2.950;2022-07-12T19:43:24;28.50;78.70
23495;DHT22;26107;50.832;2.950;2022-07-12T19:58:24;28.20;80.70
23495;DHT22;26107;50.832;2.950;2022-07-12T20:13:24;27.30;84.70
23495;DHT22;26107;50.832;2.950;2022-07-12T20:28:25;27.30;84.80
23495;DHT22;26107;50.832;2.950;2022-07-12T20:43:25;27.00;86.70
23495;DHT22;26107;50.832;2.950;2022-07-12T20:58:26;27.00;87.10
23495;DHT22;26107;50.832;2.950;2022-07-12T21:13:26;26.70;88.80
23495;DHT22;26107;50.832;2.950;2022-07-12T21:28:27;26.60;89.50
23495;DHT22;26107;50.832;2.950;2022-07-12T21:43:28;26.40;90.80
23495;DHT22;26107;50.832;2.950;2022-07-12T21:58:29;26.30;91.30
23495;DHT22;26107;50.832;2.950;2022-07-12T22:13:29;26.10;92.20
23495;DHT22;26107;50.832;2.950;2022-07-12T22:28:30;24.80;96.50
23495;DHT22;26107;50.832;2.950;2022-07-12T22:43:30;24.70;96.50
23495;DHT22;26107;50.832;2.950;2022-07-12T22:58:31;24.80;97.10
23495;DHT22;26107;50.832;2.950;2022-07-12T23:13:33;24.80;97.30
23495;DHT22;26107;50.832;2.950;2022-07-12T23:28:33;24.70;97.90
23495;DHT22;26107;50.832;2.950;2022-07-12T23:43:34;24.80;97.80
23495;DHT22;26107;50.832;2.950;2022-07-12T23:58:35;25.00;97.10
